sensor_id;sensor_type;location;lat;lon;timestamp;P1;durP1;ratioP1;P2;durP2;ratioP2
75087;SDS011;63664;44.868;40.600;2023-05-15T00:01:09;8.68;;;3.00;;
75087;SDS011;63664;44.868;40.600;2023-05-15T00:03:38;5.13;;;3.10;;
75087;SDS011;63664;44.868;40.600;2023-05-15T00:06:10;3.67;;;2.63;;
75087;SDS011;63664;44.868;40.600;2023-05-15T00:08:36;4.15;;;2.90;;
75087;SDS011;63664;44.868;40.600;2023-05-15T00:11:05;5.35;;;2.75;;
75087;SDS011;63664;44.868;40.600;2023-05-15T00:13:31;11.65;;;2.63;;
75087;SDS011;63664;44.868;40.600;2023-05-15T00:15:57;3.95;;;2.35;;
75087;SDS011;63664;44.868;40.600;2023-05-15T00:18:26;4.30;;;2.35;;
75087;SDS011;63664;44.868;40.600;2023-05-15T00:20:52;5.95;;;2.88;;
75087;SDS011;63664;44.868;40.600;2023-05-15T00:23:21;5.60;;;2.30;;
75087;SDS011;63664;44.868;40.600;2023-05-15T00:25:47;4.55;;;2.50;;
75087;SDS011;63664;44.868;40.600;2023-05-15T00:28:14;3.70;;;2.25;;
75087;SDS011;63664;44.868;40.600;2023-05-15T00:30:40;3.00;;;2.17;;
75087;SDS011;63664;44.868;40.600;2023-05-15T00:33:06;3.10;;;2.30;;
75087;SDS011;63664;44.868;40.600;2023-05-15T00:35:35;2.85;;;2.03;;
75087;SDS011;63664;44.868;40.600;2023-05-15T00:38:04;4.82;;;3.30;;
75087;SDS011;63664;44.868;40.600;2023-05-15T00:40:31;3.17;;;2.50;;
75087;SDS011;63664;44.868;40.600;2023-05-15T00:43:01;7.93;;;2.90;;
75087;SDS011;63664;44.868;40.600;2023-05-15T00:45:28;5.65;;;2.60;;
75087;SDS011;63664;44.868;40.600;2023-05-15T00:47:56;2.78;;;2.08;;
75087;SDS011;63664;44.868;40.600;2023-05-15T00:50:24;6.47;;;2.55;;
75087;SDS011;63664;44.868;40.600;2023-05-15T00:52:52;4.78;;;2.40;;
75087;SDS011;63664;44.868;40.600;2023-05-15T00:55:20;3.92;;;2.05;;
75087;SDS011;63664;44.868;40.600;2023-05-15T00:57:49;3.58;;;2.20;;
75087;SDS011;63664;44.868;40.600;2023-05-15T01:00:18;3.30;;;2.15;;
75087;SDS011;63664;44.868;40.600;2023-05-15T01:02:47;3.10;;;1.92;;
75087;SDS011;63664;44.868;40.600;2023-05-15T01:05:14;2.90;;;2.10;;
75087;SDS011;63664;44.868;40.600;2023-05-15T01:08:07;4.35;;;2.25;;
75087;SDS011;63664;44.868;40.600;2023-05-15T01:10:33;2.80;;;2.08;;
75087;SDS011;63664;44.868;40.600;2023-05-15T01:13:00;3.95;;;2.65;;
75087;SDS011;63664;44.868;40.600;2023-05-15T01:15:31;6.60;;;2.33;;
75087;SDS011;63664;44.868;40.600;2023-05-15T01:17:58;5.90;;;2.58;;
75087;SDS011;63664;44.868;40.600;2023-05-15T01:20:27;13.23;;;2.78;;
75087;SDS011;63664;44.868;40.600;2023-05-15T01:23:21;7.35;;;3.00;;
75087;SDS011;63664;44.868;40.600;2023-05-15T01:29:04;3.95;;;2.47;;
75087;SDS011;63664;44.868;40.600;2023-05-15T01:31:34;4.55;;;2.60;;
75087;SDS011;63664;44.868;40.600;2023-05-15T01:34:09;3.03;;;1.90;;
75087;SDS011;63664;44.868;40.600;2023-05-15T01:36:42;4.43;;;2.38;;
75087;SDS011;63664;44.868;40.600;2023-05-15T01:39:14;2.90;;;1.85;;
75087;SDS011;63664;44.868;40.600;2023-05-15T01:41:54;10.40;;;2.20;;
75087;SDS011;63664;44.868;40.600;2023-05-15T01:47:03;3.80;;;2.10;;
75087;SDS011;63664;44.868;40.600;2023-05-15T01:49:38;3.05;;;2.13;;
75087;SDS011;63664;44.868;40.600;2023-05-15T01:52:12;5.05;;;2.22;;
75087;SDS011;63664;44.868;40.600;2023-05-15T01:54:47;5.38;;;2.20;;
75087;SDS011;63664;44.868;40.600;2023-05-15T01:57:14;2.40;;;1.70;;
75087;SDS011;63664;44.868;40.600;2023-05-15T01:59:43;3.42;;;1.55;;
75087;SDS011;63664;44.868;40.600;2023-05-15T02:02:15;2.08;;;1.60;;
75087;SDS011;63664;44.868;40.600;2023-05-15T02:04:43;3.88;;;1.70;;
75087;SDS011;63664;44.868;40.600;2023-05-15T02:07:11;3.83;;;1.70;;
75087;SDS011;63664;44.868;40.600;2023-05-15T02:09:39;3.22;;;1.67;;
75087;SDS011;63664;44.868;40.600;2023-05-15T02:12:08;2.63;;;1.45;;
75087;SDS011;63664;44.868;40.600;2023-05-15T02:14:35;4.35;;;1.40;;
75087;SDS011;63664;44.868;40.600;2023-05-15T02:17:03;2.92;;;1.45;;
75087;SDS011;63664;44.868;40.600;2023-05-15T02:19:31;3.08;;;1.38;;
75087;SDS011;63664;44.868;40.600;2023-05-15T02:21:58;3.58;;;1.45;;
75087;SDS011;63664;44.868;40.600;2023-05-15T02:24:26;5.82;;;1.70;;
75087;SDS011;63664;44.868;40.600;2023-05-15T02:26:59;3.30;;;1.25;;
75087;SDS011;63664;44.868;40.600;2023-05-15T02:29:50;2.33;;;1.23;;
75087;SDS011;63664;44.868;40.600;2023-05-15T02:35:31;2.22;;;1.25;;
75087;SDS011;63664;44.868;40.600;2023-05-15T02:38:13;2.20;;;1.50;;
75087;SDS011;63664;44.868;40.600;2023-05-15T02:40:44;6.05;;;1.75;;
75087;SDS011;63664;44.868;40.600;2023-05-15T02:43:13;3.35;;;1.80;;
75087;SDS011;63664;44.868;40.600;2023-05-15T02:45:42;3.35;;;1.92;;
75087;SDS011;63664;44.868;40.600;2023-05-15T02:48:12;2.95;;;2.33;;
75087;SDS011;63664;44.868;40.600;2023-05-15T02:50:40;4.78;;;2.53;;
75087;SDS011;63664;44.868;40.600;2023-05-15T02:53:08;11.60;;;2.40;;
75087;SDS011;63664;44.868;40.600;2023-05-15T02:55:40;5.25;;;2.50;;
75087;SDS011;63664;44.868;40.600;2023-05-15T02:58:11;4.55;;;2.20;;
75087;SDS011;63664;44.868;40.600;2023-05-15T03:00:38;6.57;;;2.47;;
75087;SDS011;63664;44.868;40.600;2023-05-15T03:03:09;10.25;;;2.47;;
75087;SDS011;63664;44.868;40.600;2023-05-15T03:05:35;4.55;;;2.47;;
75087;SDS011;63664;44.868;40.600;2023-05-15T03:08:07;2.58;;;1.70;;
75087;SDS011;63664;44.868;40.600;2023-05-15T03:10:35;1.75;;;1.27;;
75087;SDS011;63664;44.868;40.600;2023-05-15T03:13:02;3.85;;;1.60;;
75087;SDS011;63664;44.868;40.600;2023-05-15T03:15:30;2.60;;;1.40;;
75087;SDS011;63664;44.868;40.600;2023-05-15T03:17:59;2.47;;;1.67;;
75087;SDS011;63664;44.868;40.600;2023-05-15T03:20:27;3.63;;;1.92;;
75087;SDS011;63664;44.868;40.600;2023-05-15T03:22:54;2.03;;;1.33;;
75087;SDS011;63664;44.868;40.600;2023-05-15T03:25:22;2.65;;;1.70;;
75087;SDS011;63664;44.868;40.600;2023-05-15T03:27:49;3.63;;;1.75;;
75087;SDS011;63664;44.868;40.600;2023-05-15T03:30:15;2.03;;;1.23;;
75087;SDS011;63664;44.868;40.600;2023-05-15T03:32:41;1.65;;;1.25;;
75087;SDS011;63664;44.868;40.600;2023-05-15T03:35:08;4.05;;;1.88;;
75087;SDS011;63664;44.868;40.600;2023-05-15T03:37:34;4.53;;;1.77;;
75087;SDS011;63664;44.868;40.600;2023-05-15T03:40:03;2.83;;;1.48;;
75087;SDS011;63664;44.868;40.600;2023-05-15T03:42:37;2.70;;;1.38;;
75087;SDS011;63664;44.868;40.600;2023-05-15T03:45:09;2.22;;;1.30;;
75087;SDS011;63664;44.868;40.600;2023-05-15T03:47:38;1.40;;;1.02;;
75087;SDS011;63664;44.868;40.600;2023-05-15T03:50:07;6.40;;;1.40;;
75087;SDS011;63664;44.868;40.600;2023-05-15T03:52:36;3.10;;;0.90;;
75087;SDS011;63664;44.868;40.600;2023-05-15T03:55:05;2.65;;;0.85;;
75087;SDS011;63664;44.868;40.600;2023-05-15T03:57:35;2.88;;;1.20;;
75087;SDS011;63664;44.868;40.600;2023-05-15T04:00:01;2.47;;;1.00;;
75087;SDS011;63664;44.868;40.600;2023-05-15T04:02:40;1.33;;;0.90;;
75087;SDS011;63664;44.868;40.600;2023-05-15T04:05:12;2.03;;;0.98;;
75087;SDS011;63664;44.868;40.600;2023-05-15T04:07:40;1.33;;;0.98;;
75087;SDS011;63664;44.868;40.600;2023-05-15T04:10:07;2.42;;;1.10;;
75087;SDS011;63664;44.868;40.600;2023-05-15T04:12:35;1.20;;;0.70;;
75087;SDS011;63664;44.868;40.600;2023-05-15T04:15:25;0.95;;;0.73;;
75087;SDS011;63664;44.868;40.600;2023-05-15T04:17:53;4.30;;;1.00;;
75087;SDS011;63664;44.868;40.600;2023-05-15T04:20:22;1.75;;;0.80;;
75087;SDS011;63664;44.868;40.600;2023-05-15T04:22:53;3.58;;;0.90;;
75087;SDS011;63664;44.868;40.600;2023-05-15T04:25:19;3.38;;;0.90;;
75087;SDS011;63664;44.868;40.600;2023-05-15T04:27:45;1.63;;;1.00;;
75087;SDS011;63664;44.868;40.600;2023-05-15T04:30:16;0.95;;;0.85;;
75087;SDS011;63664;44.868;40.600;2023-05-15T04:32:43;2.47;;;0.98;;
75087;SDS011;63664;44.868;40.600;2023-05-15T04:35:11;1.95;;;0.90;;
75087;SDS011;63664;44.868;40.600;2023-05-15T04:37:40;3.90;;;0.73;;
75087;SDS011;63664;44.868;40.600;2023-05-15T06:35:01;3.10;;;0.65;;
75087;SDS011;63664;44.868;40.600;2023-05-15T06:37:28;0.70;;;0.50;;
75087;SDS011;63664;44.868;40.600;2023-05-15T06:42:26;8.93;;;1.35;;
75087;SDS011;63664;44.868;40.600;2023-05-15T06:44:52;1.70;;;0.80;;
75087;SDS011;63664;44.868;40.600;2023-05-15T06:47:19;8.70;;;0.93;;
75087;SDS011;63664;44.868;40.600;2023-05-15T06:49:45;4.90;;;1.00;;
75087;SDS011;63664;44.868;40.600;2023-05-15T06:52:11;15.68;;;0.90;;
75087;SDS011;63664;44.868;40.600;2023-05-15T06:54:37;4.68;;;0.68;;
75087;SDS011;63664;44.868;40.600;2023-05-15T06:57:06;0.75;;;0.63;;
75087;SDS011;63664;44.868;40.600;2023-05-15T06:59:32;1.48;;;0.80;;
75087;SDS011;63664;44.868;40.600;2023-05-15T07:02:00;1.58;;;0.70;;
75087;SDS011;63664;44.868;40.600;2023-05-15T07:04:29;2.45;;;0.60;;
75087;SDS011;63664;44.868;40.600;2023-05-15T07:06:56;1.98;;;0.80;;
75087;SDS011;63664;44.868;40.600;2023-05-15T07:09:24;0.90;;;0.60;;
75087;SDS011;63664;44.868;40.600;2023-05-15T07:11:51;3.03;;;0.98;;
75087;SDS011;63664;44.868;40.600;2023-05-15T07:14:17;25.17;;;1.80;;
75087;SDS011;63664;44.868;40.600;2023-05-15T07:16:46;4.75;;;0.95;;
75087;SDS011;63664;44.868;40.600;2023-05-15T07:19:12;1.15;;;0.70;;
75087;SDS011;63664;44.868;40.600;2023-05-15T07:21:38;1.27;;;0.60;;
75087;SDS011;63664;44.868;40.600;2023-05-15T07:24:04;1.10;;;0.73;;
75087;SDS011;63664;44.868;40.600;2023-05-15T07:26:31;13.63;;;1.17;;
75087;SDS011;63664;44.868;40.600;2023-05-15T07:29:00;5.35;;;0.95;;
75087;SDS011;63664;44.868;40.600;2023-05-15T07:31:28;1.33;;;0.80;;
75087;SDS011;63664;44.868;40.600;2023-05-15T07:33:56;22.98;;;2.17;;
75087;SDS011;63664;44.868;40.600;2023-05-15T07:36:22;2.72;;;0.80;;
75087;SDS011;63664;44.868;40.600;2023-05-15T07:38:50;2.42;;;0.90;;
75087;SDS011;63664;44.868;40.600;2023-05-15T07:41:19;0.80;;;0.75;;
75087;SDS011;63664;44.868;40.600;2023-05-15T07:43:47;1.10;;;0.70;;
75087;SDS011;63664;44.868;40.600;2023-05-15T07:46:14;3.97;;;0.80;;
75087;SDS011;63664;44.868;40.600;2023-05-15T07:48:40;1.15;;;0.88;;
75087;SDS011;63664;44.868;40.600;2023-05-15T07:51:13;1.50;;;1.08;;
75087;SDS011;63664;44.868;40.600;2023-05-15T07:53:41;1.10;;;0.73;;
75087;SDS011;63664;44.868;40.600;2023-05-15T07:56:08;1.50;;;0.95;;
75087;SDS011;63664;44.868;40.600;2023-05-15T07:58:34;2.20;;;0.80;;
75087;SDS011;63664;44.868;40.600;2023-05-15T08:01:02;1.10;;;0.90;;
75087;SDS011;63664;44.868;40.600;2023-05-15T08:03:32;1.60;;;0.90;;
75087;SDS011;63664;44.868;40.600;2023-05-15T08:05:59;2.30;;;1.00;;
75087;SDS011;63664;44.868;40.600;2023-05-15T08:08:27;2.03;;;0.70;;
75087;SDS011;63664;44.868;40.600;2023-05-15T08:10:58;1.85;;;1.00;;
75087;SDS011;63664;44.868;40.600;2023-05-15T08:13:27;2.45;;;0.90;;
75087;SDS011;63664;44.868;40.600;2023-05-15T08:15:53;3.55;;;0.75;;
75087;SDS011;63664;44.868;40.600;2023-05-15T08:18:19;2.47;;;0.95;;
75087;SDS011;63664;44.868;40.600;2023-05-15T08:20:46;16.80;;;1.30;;
75087;SDS011;63664;44.868;40.600;2023-05-15T08:23:16;3.13;;;1.13;;
75087;SDS011;63664;44.868;40.600;2023-05-15T08:25:42;2.83;;;0.90;;
75087;SDS011;63664;44.868;40.600;2023-05-15T08:28:14;1.80;;;1.00;;
75087;SDS011;63664;44.868;40.600;2023-05-15T08:30:41;2.38;;;0.85;;
75087;SDS011;63664;44.868;40.600;2023-05-15T08:33:10;1.17;;;0.90;;
75087;SDS011;63664;44.868;40.600;2023-05-15T08:35:40;1.77;;;1.00;;
75087;SDS011;63664;44.868;40.600;2023-05-15T08:38:08;2.35;;;1.00;;
75087;SDS011;63664;44.868;40.600;2023-05-15T08:40:37;2.75;;;0.73;;
75087;SDS011;63664;44.868;40.600;2023-05-15T08:43:11;2.65;;;1.02;;
75087;SDS011;63664;44.868;40.600;2023-05-15T08:45:41;21.83;;;3.30;;
75087;SDS011;63664;44.868;40.600;2023-05-15T08:48:12;9.52;;;1.33;;
75087;SDS011;63664;44.868;40.600;2023-05-15T08:50:40;6.85;;;0.90;;
75087;SDS011;63664;44.868;40.600;2023-05-15T08:53:09;1.35;;;1.10;;
75087;SDS011;63664;44.868;40.600;2023-05-15T08:55:37;6.10;;;1.27;;
75087;SDS011;63664;44.868;40.600;2023-05-15T08:58:07;1.80;;;1.00;;
75087;SDS011;63664;44.868;40.600;2023-05-15T09:00:34;2.95;;;1.05;;
75087;SDS011;63664;44.868;40.600;2023-05-15T09:03:00;2.35;;;0.95;;
75087;SDS011;63664;44.868;40.600;2023-05-15T09:05:27;2.45;;;0.90;;
75087;SDS011;63664;44.868;40.600;2023-05-15T09:07:56;1.65;;;0.93;;
75087;SDS011;63664;44.868;40.600;2023-05-15T09:10:29;5.63;;;1.10;;
75087;SDS011;63664;44.868;40.600;2023-05-15T09:12:57;2.85;;;1.00;;
75087;SDS011;63664;44.868;40.600;2023-05-15T09:15:26;1.63;;;0.85;;
75087;SDS011;63664;44.868;40.600;2023-05-15T09:17:55;1.20;;;1.00;;
75087;SDS011;63664;44.868;40.600;2023-05-15T09:20:30;4.43;;;1.55;;
75087;SDS011;63664;44.868;40.600;2023-05-15T09:23:03;1.15;;;0.88;;
75087;SDS011;63664;44.868;40.600;2023-05-15T09:28:07;2.95;;;1.45;;
75087;SDS011;63664;44.868;40.600;2023-05-15T09:30:55;2.50;;;0.73;;
75087;SDS011;63664;44.868;40.600;2023-05-15T09:33:30;1.88;;;1.00;;
75087;SDS011;63664;44.868;40.600;2023-05-15T09:35:58;1.45;;;1.00;;
75087;SDS011;63664;44.868;40.600;2023-05-15T09:38:26;6.85;;;0.90;;
75087;SDS011;63664;44.868;40.600;2023-05-15T09:41:05;1.20;;;0.90;;
75087;SDS011;63664;44.868;40.600;2023-05-15T09:43:37;2.15;;;1.00;;
75087;SDS011;63664;44.868;40.600;2023-05-15T09:46:06;1.85;;;1.02;;
75087;SDS011;63664;44.868;40.600;2023-05-15T09:48:34;12.73;;;1.70;;
75087;SDS011;63664;44.868;40.600;2023-05-15T09:51:04;3.63;;;1.77;;
75087;SDS011;63664;44.868;40.600;2023-05-15T09:53:34;1.58;;;1.00;;
75087;SDS011;63664;44.868;40.600;2023-05-15T09:56:03;2.05;;;1.17;;
75087;SDS011;63664;44.868;40.600;2023-05-15T09:58:32;16.95;;;7.43;;
75087;SDS011;63664;44.868;40.600;2023-05-15T10:01:00;13.68;;;6.60;;
75087;SDS011;63664;44.868;40.600;2023-05-15T10:03:34;2.33;;;1.38;;
75087;SDS011;63664;44.868;40.600;2023-05-15T10:06:00;18.55;;;1.52;;
75087;SDS011;63664;44.868;40.600;2023-05-15T10:08:29;2.10;;;1.30;;
75087;SDS011;63664;44.868;40.600;2023-05-15T10:10:58;1.67;;;1.05;;
75087;SDS011;63664;44.868;40.600;2023-05-15T10:13:26;1.63;;;0.90;;
75087;SDS011;63664;44.868;40.600;2023-05-15T10:15:59;3.03;;;0.90;;
75087;SDS011;63664;44.868;40.600;2023-05-15T10:18:30;5.53;;;1.10;;
75087;SDS011;63664;44.868;40.600;2023-05-15T10:21:02;7.63;;;1.33;;
75087;SDS011;63664;44.868;40.600;2023-05-15T10:23:29;6.95;;;1.42;;
75087;SDS011;63664;44.868;40.600;2023-05-15T10:25:58;1.25;;;1.13;;
75087;SDS011;63664;44.868;40.600;2023-05-15T10:28:29;1.15;;;1.00;;
75087;SDS011;63664;44.868;40.600;2023-05-15T10:30:57;1.25;;;0.80;;
75087;SDS011;63664;44.868;40.600;2023-05-15T10:33:29;2.42;;;0.73;;
75087;SDS011;63664;44.868;40.600;2023-05-15T10:35:58;0.70;;;0.60;;
75087;SDS011;63664;44.868;40.600;2023-05-15T10:38:28;0.90;;;0.73;;
75087;SDS011;63664;44.868;40.600;2023-05-15T10:40:56;1.42;;;0.85;;
75087;SDS011;63664;44.868;40.600;2023-05-15T10:43:23;1.30;;;0.90;;
75087;SDS011;63664;44.868;40.600;2023-05-15T10:45:56;1.30;;;0.98;;
75087;SDS011;63664;44.868;40.600;2023-05-15T10:48:23;1.17;;;0.93;;
75087;SDS011;63664;44.868;40.600;2023-05-15T10:50:50;2.03;;;1.00;;
75087;SDS011;63664;44.868;40.600;2023-05-15T10:53:19;14.40;;;1.60;;
75087;SDS011;63664;44.868;40.600;2023-05-15T10:55:47;1.50;;;1.00;;
75087;SDS011;63664;44.868;40.600;2023-05-15T10:58:14;2.05;;;0.65;;
75087;SDS011;63664;44.868;40.600;2023-05-15T11:00:41;1.23;;;0.75;;
75087;SDS011;63664;44.868;40.600;2023-05-15T11:03:12;1.15;;;0.90;;
75087;SDS011;63664;44.868;40.600;2023-05-15T11:06:08;2.38;;;0.80;;
75087;SDS011;63664;44.868;40.600;2023-05-15T11:08:40;2.63;;;1.05;;
75087;SDS011;63664;44.868;40.600;2023-05-15T11:11:07;2.20;;;1.05;;
75087;SDS011;63664;44.868;40.600;2023-05-15T11:19:24;1.65;;;0.95;;
75087;SDS011;63664;44.868;40.600;2023-05-15T11:24:52;2.55;;;0.95;;
75087;SDS011;63664;44.868;40.600;2023-05-15T11:27:44;5.97;;;1.20;;
75087;SDS011;63664;44.868;40.600;2023-05-15T11:30:11;1.92;;;1.00;;
75087;SDS011;63664;44.868;40.600;2023-05-15T11:35:32;1.15;;;0.90;;
75087;SDS011;63664;44.868;40.600;2023-05-15T11:38:10;2.47;;;0.95;;
75087;SDS011;63664;44.868;40.600;2023-05-15T11:40:54;1.60;;;0.80;;
75087;SDS011;63664;44.868;40.600;2023-05-15T11:48:48;1.15;;;0.98;;
75087;SDS011;63664;44.868;40.600;2023-05-15T11:51:22;2.20;;;1.23;;
75087;SDS011;63664;44.868;40.600;2023-05-15T11:53:54;11.15;;;1.55;;
75087;SDS011;63664;44.868;40.600;2023-05-15T11:56:26;4.85;;;1.52;;
75087;SDS011;63664;44.868;40.600;2023-05-15T11:58:56;5.97;;;1.50;;
75087;SDS011;63664;44.868;40.600;2023-05-15T12:01:23;1.98;;;1.20;;
75087;SDS011;63664;44.868;40.600;2023-05-15T12:03:52;4.97;;;1.40;;
75087;SDS011;63664;44.868;40.600;2023-05-15T12:06:24;3.50;;;0.75;;
75087;SDS011;63664;44.868;40.600;2023-05-15T12:08:53;3.25;;;0.90;;
75087;SDS011;63664;44.868;40.600;2023-05-15T12:11:21;1.40;;;1.00;;
75087;SDS011;63664;44.868;40.600;2023-05-15T12:13:52;1.98;;;0.95;;
75087;SDS011;63664;44.868;40.600;2023-05-15T12:16:25;2.63;;;1.13;;
75087;SDS011;63664;44.868;40.600;2023-05-15T12:18:56;12.70;;;1.75;;
75087;SDS011;63664;44.868;40.600;2023-05-15T12:21:22;5.35;;;1.15;;
75087;SDS011;63664;44.868;40.600;2023-05-15T12:23:51;1.70;;;1.08;;
75087;SDS011;63664;44.868;40.600;2023-05-15T12:49:27;0.88;;;0.60;;
75087;SDS011;63664;44.868;40.600;2023-05-15T12:51:58;1.85;;;0.90;;
75087;SDS011;63664;44.868;40.600;2023-05-15T12:54:39;1.17;;;0.80;;
75087;SDS011;63664;44.868;40.600;2023-05-15T12:57:12;1.00;;;0.90;;
75087;SDS011;63664;44.868;40.600;2023-05-15T12:59:39;1.70;;;0.80;;
75087;SDS011;63664;44.868;40.600;2023-05-15T13:02:09;2.75;;;0.80;;
75087;SDS011;63664;44.868;40.600;2023-05-15T13:04:37;3.25;;;1.00;;
75087;SDS011;63664;44.868;40.600;2023-05-15T13:07:03;1.05;;;0.77;;
75087;SDS011;63664;44.868;40.600;2023-05-15T13:09:31;2.47;;;0.93;;
75087;SDS011;63664;44.868;40.600;2023-05-15T13:12:00;2.75;;;0.98;;
75087;SDS011;63664;44.868;40.600;2023-05-15T13:14:32;2.13;;;1.20;;
75087;SDS011;63664;44.868;40.600;2023-05-15T13:17:00;2.38;;;0.80;;
75087;SDS011;63664;44.868;40.600;2023-05-15T13:19:29;1.42;;;0.93;;
75087;SDS011;63664;44.868;40.600;2023-05-15T13:24:24;2.72;;;0.90;;
75087;SDS011;63664;44.868;40.600;2023-05-15T13:26:51;2.20;;;0.93;;
75087;SDS011;63664;44.868;40.600;2023-05-15T13:29:20;1.58;;;0.95;;
75087;SDS011;63664;44.868;40.600;2023-05-15T13:31:46;23.48;;;1.77;;
75087;SDS011;63664;44.868;40.600;2023-05-15T13:34:13;46.97;;;5.10;;
75087;SDS011;63664;44.868;40.600;2023-05-15T13:36:42;6.93;;;1.65;;
75087;SDS011;63664;44.868;40.600;2023-05-15T13:39:08;2.83;;;0.90;;
75087;SDS011;63664;44.868;40.600;2023-05-15T14:32:16;3.25;;;1.10;;
75087;SDS011;63664;44.868;40.600;2023-05-15T14:34:42;2.03;;;1.02;;
75087;SDS011;63664;44.868;40.600;2023-05-15T14:37:08;8.93;;;1.13;;
75087;SDS011;63664;44.868;40.600;2023-05-15T14:39:35;3.45;;;0.90;;
75087;SDS011;63664;44.868;40.600;2023-05-15T14:42:01;1.67;;;1.00;;
75087;SDS011;63664;44.868;40.600;2023-05-15T14:44:31;3.70;;;1.83;;
75087;SDS011;63664;44.868;40.600;2023-05-15T14:47:07;11.20;;;4.65;;
75087;SDS011;63664;44.868;40.600;2023-05-15T14:49:35;4.13;;;2.20;;
75087;SDS011;63664;44.868;40.600;2023-05-15T14:52:06;6.57;;;3.30;;
75087;SDS011;63664;44.868;40.600;2023-05-15T14:54:34;10.48;;;4.47;;
75087;SDS011;63664;44.868;40.600;2023-05-15T14:57:04;8.77;;;4.10;;
75087;SDS011;63664;44.868;40.600;2023-05-15T14:59:33;12.45;;;5.18;;
75087;SDS011;63664;44.868;40.600;2023-05-15T15:02:00;16.67;;;4.97;;
75087;SDS011;63664;44.868;40.600;2023-05-15T15:04:29;9.10;;;2.17;;
75087;SDS011;63664;44.868;40.600;2023-05-15T15:07:01;11.68;;;6.35;;
75087;SDS011;63664;44.868;40.600;2023-05-15T15:09:28;14.27;;;2.45;;
75087;SDS011;63664;44.868;40.600;2023-05-15T15:11:54;19.10;;;4.30;;
75087;SDS011;63664;44.868;40.600;2023-05-15T15:14:23;8.82;;;6.47;;
75087;SDS011;63664;44.868;40.600;2023-05-15T15:16:49;12.88;;;6.60;;
75087;SDS011;63664;44.868;40.600;2023-05-15T15:19:16;7.40;;;2.55;;
75087;SDS011;63664;44.868;40.600;2023-05-15T15:21:44;12.10;;;4.60;;
75087;SDS011;63664;44.868;40.600;2023-05-15T15:32:13;9.98;;;5.75;;
75087;SDS011;63664;44.868;40.600;2023-05-15T15:34:42;8.93;;;4.30;;
75087;SDS011;63664;44.868;40.600;2023-05-15T15:37:11;8.80;;;2.22;;
75087;SDS011;63664;44.868;40.600;2023-05-15T15:39:37;37.88;;;11.23;;
75087;SDS011;63664;44.868;40.600;2023-05-15T15:42:08;11.07;;;5.45;;
75087;SDS011;63664;44.868;40.600;2023-05-15T15:44:36;13.27;;;4.18;;
75087;SDS011;63664;44.868;40.600;2023-05-15T15:47:03;10.13;;;4.82;;
75087;SDS011;63664;44.868;40.600;2023-05-15T15:49:31;16.75;;;5.03;;
75087;SDS011;63664;44.868;40.600;2023-05-15T15:52:00;19.67;;;7.32;;
75087;SDS011;63664;44.868;40.600;2023-05-15T15:54:29;23.10;;;7.70;;
75087;SDS011;63664;44.868;40.600;2023-05-15T15:56:57;16.02;;;7.68;;
75087;SDS011;63664;44.868;40.600;2023-05-15T15:59:24;31.80;;;10.80;;
75087;SDS011;63664;44.868;40.600;2023-05-15T16:01:50;19.17;;;7.63;;
75087;SDS011;63664;44.868;40.600;2023-05-15T16:04:19;14.05;;;5.10;;
75087;SDS011;63664;44.868;40.600;2023-05-15T16:06:48;9.73;;;3.95;;
75087;SDS011;63664;44.868;40.600;2023-05-15T16:09:14;6.72;;;2.70;;
75087;SDS011;63664;44.868;40.600;2023-05-15T16:11:46;7.95;;;2.63;;
75087;SDS011;63664;44.868;40.600;2023-05-15T16:14:12;7.22;;;2.30;;
75087;SDS011;63664;44.868;40.600;2023-05-15T16:16:39;6.90;;;2.10;;
75087;SDS011;63664;44.868;40.600;2023-05-15T16:19:05;6.72;;;2.08;;
75087;SDS011;63664;44.868;40.600;2023-05-15T16:21:31;7.30;;;2.30;;
75087;SDS011;63664;44.868;40.600;2023-05-15T16:24:01;20.13;;;3.75;;
75087;SDS011;63664;44.868;40.600;2023-05-15T16:26:28;7.80;;;2.88;;
75087;SDS011;63664;44.868;40.600;2023-05-15T16:28:56;14.18;;;2.88;;
75087;SDS011;63664;44.868;40.600;2023-05-15T16:31:23;12.05;;;3.38;;
75087;SDS011;63664;44.868;40.600;2023-05-15T16:33:49;14.48;;;3.78;;
75087;SDS011;63664;44.868;40.600;2023-05-15T16:36:16;7.85;;;3.05;;
75087;SDS011;63664;44.868;40.600;2023-05-15T16:38:45;8.57;;;2.80;;
75087;SDS011;63664;44.868;40.600;2023-05-15T16:41:12;9.00;;;4.03;;
75087;SDS011;63664;44.868;40.600;2023-05-15T16:43:38;7.38;;;3.33;;
75087;SDS011;63664;44.868;40.600;2023-05-15T16:46:07;5.38;;;2.42;;
75087;SDS011;63664;44.868;40.600;2023-05-15T16:48:35;4.90;;;2.42;;
75087;SDS011;63664;44.868;40.600;2023-05-15T16:51:03;4.43;;;2.22;;
75087;SDS011;63664;44.868;40.600;2023-05-15T16:53:29;3.90;;;2.00;;
75087;SDS011;63664;44.868;40.600;2023-05-15T16:55:58;5.78;;;3.35;;
75087;SDS011;63664;44.868;40.600;2023-05-15T16:58:27;5.22;;;2.35;;
75087;SDS011;63664;44.868;40.600;2023-05-15T17:00:56;5.43;;;2.42;;
75087;SDS011;63664;44.868;40.600;2023-05-15T17:03:22;8.15;;;5.05;;
75087;SDS011;63664;44.868;40.600;2023-05-15T17:05:49;4.43;;;2.45;;
75087;SDS011;63664;44.868;40.600;2023-05-15T17:08:19;3.15;;;2.25;;
75087;SDS011;63664;44.868;40.600;2023-05-15T17:10:50;6.05;;;3.80;;
75087;SDS011;63664;44.868;40.600;2023-05-15T17:13:20;3.58;;;2.53;;
75087;SDS011;63664;44.868;40.600;2023-05-15T17:15:46;7.57;;;3.88;;
75087;SDS011;63664;44.868;40.600;2023-05-15T17:18:14;6.10;;;3.35;;
75087;SDS011;63664;44.868;40.600;2023-05-15T17:20:41;1.77;;;1.27;;
75087;SDS011;63664;44.868;40.600;2023-05-15T17:23:07;1.30;;;1.17;;
75087;SDS011;63664;44.868;40.600;2023-05-15T17:25:36;4.47;;;2.22;;
75087;SDS011;63664;44.868;40.600;2023-05-15T17:28:04;6.70;;;2.58;;
75087;SDS011;63664;44.868;40.600;2023-05-15T17:30:35;4.38;;;2.47;;
75087;SDS011;63664;44.868;40.600;2023-05-15T17:33:02;3.30;;;1.92;;
75087;SDS011;63664;44.868;40.600;2023-05-15T17:35:28;5.68;;;1.77;;
75087;SDS011;63664;44.868;40.600;2023-05-15T17:37:58;3.25;;;1.90;;
75087;SDS011;63664;44.868;40.600;2023-05-15T17:40:27;4.50;;;2.10;;
75087;SDS011;63664;44.868;40.600;2023-05-15T17:42:56;5.63;;;2.20;;
75087;SDS011;63664;44.868;40.600;2023-05-15T17:45:25;6.85;;;2.08;;
75087;SDS011;63664;44.868;40.600;2023-05-15T17:47:56;5.95;;;2.20;;
75087;SDS011;63664;44.868;40.600;2023-05-15T17:50:28;6.15;;;2.10;;
75087;SDS011;63664;44.868;40.600;2023-05-15T17:52:54;7.10;;;2.78;;
75087;SDS011;63664;44.868;40.600;2023-05-15T17:55:23;6.97;;;3.17;;
75087;SDS011;63664;44.868;40.600;2023-05-15T17:57:49;7.13;;;3.53;;
75087;SDS011;63664;44.868;40.600;2023-05-15T18:00:18;9.63;;;3.53;;
75087;SDS011;63664;44.868;40.600;2023-05-15T18:02:46;8.05;;;3.25;;
75087;SDS011;63664;44.868;40.600;2023-05-15T18:05:12;13.30;;;4.93;;
75087;SDS011;63664;44.868;40.600;2023-05-15T18:07:39;8.30;;;4.00;;
75087;SDS011;63664;44.868;40.600;2023-05-15T18:10:07;10.25;;;3.42;;
75087;SDS011;63664;44.868;40.600;2023-05-15T18:12:36;8.38;;;4.45;;
75087;SDS011;63664;44.868;40.600;2023-05-15T18:15:02;9.75;;;4.95;;
75087;SDS011;63664;44.868;40.600;2023-05-15T18:17:29;10.30;;;4.43;;
75087;SDS011;63664;44.868;40.600;2023-05-15T18:19:57;7.75;;;3.70;;
75087;SDS011;63664;44.868;40.600;2023-05-15T18:22:32;8.80;;;3.65;;
75087;SDS011;63664;44.868;40.600;2023-05-15T18:24:58;7.97;;;3.22;;
75087;SDS011;63664;44.868;40.600;2023-05-15T18:27:29;9.23;;;3.65;;
75087;SDS011;63664;44.868;40.600;2023-05-15T18:29:55;7.65;;;4.00;;
75087;SDS011;63664;44.868;40.600;2023-05-15T18:32:24;8.40;;;4.88;;
75087;SDS011;63664;44.868;40.600;2023-05-15T18:34:50;25.27;;;4.70;;